createdAt,value
2018-07-12T00:00:04.428Z,56.80
2018-07-12T00:02:32.094Z,56.90
2018-07-12T00:05:00.072Z,57.10
2018-07-12T00:07:28.401Z,57.10
2018-07-12T00:09:56.055Z,57.10
2018-07-12T00:12:23.787Z,57.10
2018-07-12T00:14:51.471Z,57.10
2018-07-12T00:17:19.187Z,57.10
2018-07-12T00:19:46.856Z,57.10
2018-07-12T00:22:14.720Z,57.10
2018-07-12T00:27:10.437Z,57.20
2018-07-12T00:32:06.084Z,57.30
2018-07-12T00:34:33.794Z,57.40
2018-07-12T00:37:01.512Z,57.40
2018-07-12T00:41:57.116Z,57.50
2018-07-12T00:44:24.777Z,57.40
2018-07-12T00:46:52.477Z,57.50
2018-07-12T00:49:20.175Z,57.50
2018-07-12T00:51:47.857Z,57.60
2018-07-12T00:54:15.528Z,57.70
2018-07-12T00:56:43.276Z,57.80
2018-07-12T00:59:10.929Z,57.80
2018-07-12T01:01:38.634Z,57.80
2018-07-12T01:04:06.345Z,57.90
2018-07-12T01:06:34.080Z,58.00
2018-07-12T01:09:02.016Z,58.00
2018-07-12T01:11:29.688Z,58.10
2018-07-12T01:13:57.351Z,58.20
2018-07-12T01:16:25.164Z,58.30
2018-07-12T01:18:52.836Z,59.00
2018-07-12T01:21:20.538Z,58.50
2018-07-12T01:23:48.256Z,58.50
2018-07-12T01:26:15.921Z,58.50
2018-07-12T01:28:43.757Z,58.60
2018-07-12T01:31:11.423Z,58.80
2018-07-12T01:33:39.130Z,58.80
2018-07-12T01:36:06.817Z,58.90
2018-07-12T01:38:34.482Z,58.90
2018-07-12T01:41:02.168Z,59.00
2018-07-12T01:43:29.858Z,59.00
2018-07-12T01:45:57.608Z,59.10
2018-07-12T01:48:25.286Z,59.10
2018-07-12T01:50:53.064Z,59.10
2018-07-12T01:53:21.191Z,59.20
2018-07-12T01:55:48.860Z,59.20
2018-07-12T01:58:16.498Z,59.30
2018-07-12T02:00:44.542Z,59.30
2018-07-12T02:03:12.341Z,59.40
2018-07-12T02:05:40.041Z,59.30
2018-07-12T02:08:07.725Z,59.30
2018-07-12T02:10:35.429Z,59.30
2018-07-12T02:13:03.089Z,59.40
2018-07-12T02:15:30.829Z,59.50
2018-07-12T02:17:58.502Z,59.50
2018-07-12T02:20:26.204Z,59.50
2018-07-12T02:22:54.475Z,59.60
2018-07-12T02:25:22.148Z,59.60
2018-07-12T02:27:50.339Z,59.60
2018-07-12T02:30:18.006Z,59.60
2018-07-12T02:32:45.671Z,59.60
2018-07-12T02:35:13.563Z,59.80
2018-07-12T02:37:41.202Z,59.70
2018-07-12T02:40:08.923Z,59.80
2018-07-12T02:42:36.588Z,60.60
2018-07-12T02:45:04.284Z,59.80
2018-07-12T02:47:32.026Z,60.60
2018-07-12T02:49:59.712Z,59.90
2018-07-12T02:52:27.572Z,59.90
2018-07-12T02:54:55.338Z,60.00
2018-07-12T02:57:23.081Z,60.00
2018-07-12T02:59:50.753Z,60.00
2018-07-12T03:02:18.623Z,60.10
2018-07-12T03:04:50.406Z,60.10
2018-07-12T03:07:18.108Z,60.30
2018-07-12T03:12:13.701Z,60.30
2018-07-12T03:14:41.354Z,60.40
2018-07-12T03:17:09.015Z,60.40
2018-07-12T03:19:36.675Z,60.60
2018-07-12T03:22:04.453Z,60.60
2018-07-12T03:24:32.149Z,60.60
2018-07-12T03:26:59.829Z,60.40
2018-07-12T03:29:27.479Z,60.80
2018-07-12T03:31:55.158Z,60.90
2018-07-12T03:34:22.906Z,61.00
2018-07-12T03:36:51.354Z,61.00
2018-07-12T03:39:19.006Z,61.10
2018-07-12T03:41:46.710Z,61.20
2018-07-12T03:44:14.518Z,61.20
2018-07-12T03:46:42.200Z,61.20
2018-07-12T03:49:09.854Z,61.50
2018-07-12T03:51:37.630Z,61.50
2018-07-12T03:56:33.208Z,62.50
2018-07-12T03:59:00.912Z,61.80
2018-07-12T04:01:28.720Z,61.80
2018-07-12T04:03:56.390Z,61.80
2018-07-12T04:06:24.192Z,62.00
2018-07-12T04:08:51.890Z,62.10
2018-07-12T04:13:47.518Z,62.20
2018-07-12T04:16:15.310Z,62.30
2018-07-12T04:18:42.996Z,62.30
2018-07-12T04:21:10.774Z,62.40
2018-07-12T04:23:43.018Z,62.40
2018-07-12T04:26:10.675Z,62.40
2018-07-12T04:28:38.420Z,62.70
2018-07-12T04:31:06.096Z,62.60
2018-07-12T04:33:33.789Z,62.70
2018-07-12T04:36:01.541Z,62.70
2018-07-12T04:38:29.211Z,62.80
2018-07-12T04:40:56.871Z,62.90
2018-07-12T04:43:24.639Z,63.20
2018-07-12T04:45:52.379Z,63.20
2018-07-12T04:48:20.641Z,63.20
2018-07-12T04:50:48.322Z,63.30
2018-07-12T04:53:16.008Z,63.20
2018-07-12T04:55:43.688Z,63.20
2018-07-12T04:58:11.454Z,63.30
2018-07-12T05:00:39.195Z,63.40
2018-07-12T05:03:07.359Z,63.30
2018-07-12T05:05:35.425Z,63.40
2018-07-12T05:08:03.474Z,63.40
2018-07-12T05:10:32.125Z,63.50
2018-07-12T05:13:00.724Z,63.50
2018-07-12T05:15:28.437Z,63.50
2018-07-12T05:17:56.494Z,63.70
2018-07-12T05:20:24.250Z,63.70
2018-07-12T05:22:52.191Z,63.70
2018-07-12T05:25:19.940Z,63.80
2018-07-12T05:27:47.656Z,63.70
2018-07-12T05:30:15.404Z,63.70
2018-07-12T05:32:43.206Z,63.60
2018-07-12T05:35:11.006Z,63.70
2018-07-12T05:37:40.366Z,63.70
2018-07-12T05:40:10.500Z,63.70
2018-07-12T05:42:40.554Z,64.50
2018-07-12T05:45:10.714Z,63.60
2018-07-12T05:47:44.898Z,63.60
2018-07-12T05:50:21.140Z,63.50
2018-07-12T05:52:50.743Z,63.40
2018-07-12T05:57:49.830Z,63.30
2018-07-12T06:00:19.379Z,63.20
2018-07-12T06:02:49.459Z,63.20
2018-07-12T06:05:18.986Z,63.00
2018-07-12T06:07:49.103Z,63.00
2018-07-12T06:10:19.205Z,62.80
2018-07-12T06:12:48.628Z,62.60
2018-07-12T06:17:47.156Z,62.20
2018-07-12T06:20:18.036Z,61.90
2018-07-12T06:22:49.157Z,61.70
2018-07-12T06:25:19.295Z,61.50
2018-07-12T06:27:49.819Z,61.30
2018-07-12T06:30:19.780Z,61.00
2018-07-12T06:32:49.218Z,60.70
2018-07-12T06:35:19.091Z,60.60
2018-07-12T06:40:18.158Z,60.10
2018-07-12T06:42:48.309Z,59.90
2018-07-12T06:45:17.842Z,59.60
2018-07-12T06:47:47.288Z,59.40
2018-07-12T06:50:17.565Z,59.00
2018-07-12T06:52:47.857Z,58.90
2018-07-12T06:55:17.373Z,58.60
2018-07-12T07:00:16.233Z,58.30
2018-07-12T07:02:45.781Z,57.90
2018-07-12T07:05:15.894Z,57.40
2018-07-12T07:07:45.574Z,57.10
2018-07-12T07:10:15.722Z,56.90
2018-07-12T07:12:45.299Z,56.70
2018-07-12T07:15:14.871Z,56.40
2018-07-12T07:17:44.598Z,56.20
2018-07-12T07:20:14.054Z,56.00
2018-07-12T07:25:13.501Z,55.90
2018-07-12T07:27:43.137Z,55.70
2018-07-12T07:30:13.626Z,55.40
2018-07-12T07:32:43.880Z,55.30
2018-07-12T07:35:13.421Z,55.00
2018-07-12T07:37:44.530Z,54.70
2018-07-12T07:40:14.222Z,54.30
2018-07-12T07:42:44.840Z,54.10
2018-07-12T07:45:14.732Z,53.80
2018-07-12T07:47:44.546Z,53.70
2018-07-12T07:50:14.314Z,53.30
2018-07-12T07:52:43.902Z,52.60
2018-07-12T07:55:13.969Z,53.10
2018-07-12T07:57:44.244Z,53.00
2018-07-12T08:00:15.797Z,53.00
2018-07-12T08:02:46.493Z,52.90
2018-07-12T08:10:17.108Z,52.10
2018-07-12T08:12:46.684Z,51.80
2018-07-12T08:15:17.590Z,51.70
2018-07-12T08:17:47.585Z,51.60
2018-07-12T08:20:17.029Z,51.40
2018-07-12T08:22:47.309Z,51.10
2018-07-12T08:25:17.279Z,51.10
2018-07-12T08:28:30.308Z,50.80
2018-07-12T08:31:00.400Z,50.50
2018-07-12T08:33:30.511Z,50.50
2018-07-12T08:36:00.020Z,50.40
2018-07-12T08:38:30.955Z,50.30
2018-07-12T08:41:00.538Z,50.30
2018-07-12T08:43:30.076Z,49.90
2018-07-12T08:45:59.948Z,49.70
2018-07-12T08:48:31.079Z,49.80
2018-07-12T08:51:01.139Z,49.60
2018-07-12T08:53:30.557Z,49.70
2018-07-12T08:56:00.977Z,49.60
2018-07-12T08:58:30.987Z,49.10
2018-07-12T09:01:01.189Z,49.00
2018-07-12T09:03:30.814Z,49.00
2018-07-12T09:06:00.372Z,48.80
2018-07-12T09:08:30.038Z,48.80
2018-07-12T09:10:59.607Z,48.50
2018-07-12T09:13:29.169Z,48.30
2018-07-12T09:15:58.887Z,48.10
2018-07-12T09:18:29.402Z,48.00
2018-07-12T09:23:28.333Z,47.70
2018-07-12T09:25:59.368Z,47.50
2018-07-12T09:28:28.911Z,47.20
2018-07-12T09:30:58.372Z,47.30
2018-07-12T09:33:27.857Z,47.20
2018-07-12T09:35:57.338Z,47.00
2018-07-12T09:38:54.390Z,46.80
2018-07-12T09:41:26.445Z,46.60
2018-07-12T09:43:56.700Z,46.40
2018-07-12T09:46:26.239Z,46.40
2018-07-12T09:48:57.162Z,46.40
2018-07-12T09:51:26.890Z,46.30
2018-07-12T09:53:56.375Z,46.10
2018-07-12T09:56:41.480Z,45.80
2018-07-12T09:59:10.804Z,45.80
2018-07-12T10:01:47.847Z,45.60
2018-07-12T10:04:17.311Z,45.20
2018-07-12T10:06:52.263Z,45.00
2018-07-12T10:12:01.405Z,44.80
2018-07-12T10:14:36.034Z,44.70
2018-07-12T10:17:10.812Z,44.60
2018-07-12T10:19:41.249Z,44.50
2018-07-12T10:22:11.934Z,44.30
2018-07-12T10:24:41.339Z,44.30
2018-07-12T10:29:41.197Z,43.90
2018-07-12T10:32:10.546Z,43.80
2018-07-12T10:34:40.487Z,43.60
2018-07-12T10:37:09.942Z,43.20
2018-07-12T10:39:41.552Z,43.00
2018-07-12T10:42:11.096Z,42.80
2018-07-12T10:44:41.069Z,42.60
2018-07-12T10:47:11.310Z,42.60
2018-07-12T10:49:41.463Z,42.40
2018-07-12T10:52:11.615Z,42.20
2018-07-12T10:57:11.036Z,41.70
2018-07-12T11:02:11.674Z,41.40
2018-07-12T11:07:12.352Z,41.30
2018-07-12T11:09:41.773Z,41.20
2018-07-12T11:12:11.187Z,41.00
2018-07-12T11:14:40.735Z,40.90
2018-07-12T11:17:10.302Z,40.80
2018-07-12T11:19:40.260Z,40.70
2018-07-12T11:24:38.995Z,40.50
2018-07-12T11:27:08.396Z,40.20
2018-07-12T11:29:53.231Z,40.10
2018-07-12T11:32:22.712Z,40.00
2018-07-12T11:34:54.372Z,40.10
2018-07-12T11:37:27.199Z,39.90
2018-07-12T11:39:56.601Z,39.80
2018-07-12T11:42:25.939Z,39.80
2018-07-12T11:44:55.820Z,39.80
2018-07-12T11:47:25.915Z,40.00
2018-07-12T11:49:55.255Z,40.10
2018-07-12T11:52:26.108Z,39.90
2018-07-12T11:54:55.560Z,39.80
2018-07-12T11:57:25.048Z,40.00
2018-07-12T11:59:54.646Z,40.20
2018-07-12T12:02:25.936Z,40.30
2018-07-12T12:04:59.156Z,40.30
2018-07-12T12:07:29.408Z,40.50
2018-07-12T12:10:03.664Z,40.70
2018-07-12T12:12:48.911Z,40.00
2018-07-12T12:15:18.314Z,39.60
2018-07-12T12:17:50.363Z,39.30
2018-07-12T12:20:19.935Z,39.10
2018-07-12T12:22:49.326Z,38.80
2018-07-12T12:25:19.425Z,38.60
2018-07-12T12:27:48.938Z,38.40
2018-07-12T12:30:19.293Z,38.30
2018-07-12T12:32:49.782Z,38.40
2018-07-12T12:35:19.637Z,38.10
2018-07-12T12:37:49.119Z,37.60
2018-07-12T12:40:19.743Z,36.90
2018-07-12T12:42:49.341Z,35.60
2018-07-12T12:45:18.787Z,35.10
2018-07-12T12:47:50.663Z,34.40
2018-07-12T12:50:20.145Z,34.20
2018-07-12T12:52:49.574Z,33.80
2018-07-12T12:55:20.724Z,33.20
2018-07-12T12:57:51.126Z,33.10
2018-07-12T13:00:20.868Z,32.90
2018-07-12T13:02:51.465Z,32.70
2018-07-12T13:05:22.017Z,32.20
2018-07-12T13:07:51.442Z,32.00
2018-07-12T13:10:21.233Z,32.20
2018-07-12T13:12:51.006Z,32.40
2018-07-12T13:15:21.173Z,32.30
2018-07-12T13:17:50.862Z,32.30
2018-07-12T13:20:20.526Z,32.10
2018-07-12T13:22:50.349Z,31.90
2018-07-12T13:25:19.689Z,32.00
2018-07-12T13:27:49.980Z,32.00
2018-07-12T13:30:19.755Z,32.10
2018-07-12T13:32:52.853Z,32.40
2018-07-12T13:37:51.722Z,33.00
2018-07-12T13:40:22.684Z,33.00
2018-07-12T13:42:53.255Z,33.00
2018-07-12T13:45:22.741Z,32.80
2018-07-12T13:47:55.745Z,32.40
2018-07-12T13:50:25.265Z,31.90
2018-07-12T13:52:55.715Z,31.60
2018-07-12T13:55:25.437Z,31.60
2018-07-12T13:57:55.250Z,31.60
2018-07-12T14:02:54.359Z,32.10
2018-07-12T14:05:23.786Z,31.50
2018-07-12T14:10:22.647Z,31.80
2018-07-12T14:12:52.141Z,32.00
2018-07-12T14:15:21.749Z,32.20
2018-07-12T14:17:51.229Z,32.30
2018-07-12T14:20:22.716Z,32.00
2018-07-12T14:22:53.667Z,31.70
2018-07-12T14:25:24.111Z,31.20
2018-07-12T14:27:54.369Z,30.60
2018-07-12T14:30:24.797Z,30.20
2018-07-12T14:32:54.787Z,29.60
2018-07-12T14:35:24.760Z,29.10
2018-07-12T14:37:55.515Z,28.60
2018-07-12T14:40:26.352Z,28.00
2018-07-12T14:42:56.647Z,27.40
2018-07-12T14:45:27.291Z,26.90
2018-07-12T14:47:58.417Z,26.40
2018-07-12T14:50:29.089Z,25.70
2018-07-12T14:53:00.368Z,25.00
2018-07-12T14:55:29.974Z,24.20
2018-07-12T14:58:01.220Z,23.40
2018-07-12T15:00:30.776Z,22.80
2018-07-12T15:03:01.487Z,22.40
2018-07-12T15:05:31.546Z,21.90
2018-07-12T15:10:31.073Z,21.30
2018-07-12T15:13:02.012Z,21.00
2018-07-12T15:15:31.626Z,20.80
2018-07-12T15:20:31.885Z,20.20
2018-07-12T15:23:02.263Z,19.90
2018-07-12T15:25:32.901Z,19.80
2018-07-12T15:28:03.095Z,19.50
2018-07-12T15:33:03.902Z,19.60
2018-07-12T15:38:08.149Z,20.10
2018-07-12T15:40:37.601Z,20.50
2018-07-12T15:43:08.245Z,20.60
2018-07-12T15:45:39.164Z,20.50
2018-07-12T15:48:08.719Z,20.30
2018-07-12T15:53:08.850Z,20.60
2018-07-12T15:55:39.180Z,20.60
2018-07-12T15:58:10.738Z,20.90
2018-07-12T16:00:47.428Z,21.50
2018-07-12T16:03:20.132Z,22.00
2018-07-12T16:05:51.705Z,22.50
2018-07-12T16:08:31.981Z,22.80
2018-07-12T16:11:07.273Z,22.70
2018-07-12T16:13:36.839Z,22.50
2018-07-12T16:16:08.388Z,22.70
2018-07-12T16:18:37.838Z,22.90
2018-07-12T16:21:09.229Z,22.90
2018-07-12T16:23:38.653Z,22.60
2018-07-12T16:28:38.246Z,22.70
2018-07-12T16:31:08.404Z,22.90
2018-07-12T16:33:37.980Z,23.20
2018-07-12T16:36:07.457Z,23.60
2018-07-12T16:38:37.127Z,23.80
2018-07-12T16:41:07.410Z,23.70
2018-07-12T16:43:42.011Z,23.80
2018-07-12T16:46:12.189Z,24.10
2018-07-12T16:48:42.036Z,24.40
2018-07-12T16:51:11.721Z,24.80
2018-07-12T16:53:41.881Z,25.10
2018-07-12T16:56:11.904Z,25.20
2018-07-12T16:58:42.460Z,25.10
2018-07-12T17:01:17.321Z,25.00
2018-07-12T17:03:48.512Z,25.40
2018-07-12T17:06:18.617Z,24.70
2018-07-12T17:08:49.271Z,24.40
2018-07-12T17:11:19.385Z,24.10
2018-07-12T17:13:51.183Z,24.20
2018-07-12T17:16:20.642Z,24.50
2018-07-12T17:18:50.132Z,24.80
2018-07-12T17:21:19.512Z,24.90
2018-07-12T17:23:50.136Z,24.90
2018-07-12T17:26:19.561Z,24.80
2018-07-12T17:28:50.524Z,24.80
2018-07-12T17:31:20.146Z,24.60
2018-07-12T17:33:50.455Z,24.50
2018-07-12T17:36:19.934Z,24.40
2018-07-12T17:38:49.376Z,24.40
2018-07-12T17:41:18.814Z,24.30
2018-07-12T17:43:48.958Z,24.30
2018-07-12T17:46:18.980Z,24.50
2018-07-12T17:48:48.429Z,24.80
2018-07-12T17:51:19.164Z,25.40
2018-07-12T17:53:49.441Z,24.90
2018-07-12T17:56:19.326Z,25.10
2018-07-12T17:58:49.010Z,25.20
2018-07-12T18:01:19.493Z,25.40
2018-07-12T18:03:49.534Z,25.70
2018-07-12T18:06:18.946Z,26.10
2018-07-12T18:08:49.189Z,26.50
2018-07-12T18:11:23.621Z,26.70
2018-07-12T18:13:54.664Z,27.10
2018-07-12T18:16:24.169Z,27.50
2018-07-12T18:18:53.827Z,27.90
2018-07-12T18:21:24.152Z,28.00
2018-07-12T18:23:54.510Z,28.30
2018-07-12T18:26:24.127Z,28.60
2018-07-12T18:28:53.534Z,29.00
2018-07-12T18:31:23.004Z,29.60
2018-07-12T18:33:52.649Z,30.00
2018-07-12T18:38:51.629Z,31.10
2018-07-12T18:41:22.250Z,31.60
2018-07-12T18:43:51.636Z,32.90
2018-07-12T18:46:21.108Z,32.70
2018-07-12T18:48:50.626Z,33.10
2018-07-12T18:51:20.184Z,33.60
2018-07-12T18:53:49.676Z,34.20
2018-07-12T18:56:19.138Z,34.70
2018-07-12T18:58:49.155Z,35.10
2018-07-12T19:01:18.680Z,35.60
2018-07-12T19:03:48.165Z,36.40
2018-07-12T19:06:18.432Z,37.10
2018-07-12T19:08:47.976Z,37.80
2018-07-12T19:11:18.769Z,38.40
2018-07-12T19:13:48.688Z,39.00
2018-07-12T19:16:18.307Z,39.30
2018-07-12T19:18:48.546Z,39.70
2018-07-12T19:21:17.963Z,40.10
2018-07-12T19:23:48.382Z,40.40
2018-07-12T19:26:17.827Z,40.70
2018-07-12T19:28:47.913Z,41.10
2018-07-12T19:33:46.674Z,41.80
2018-07-12T19:36:16.143Z,42.20
2018-07-12T19:38:45.764Z,42.50
2018-07-12T19:41:15.327Z,42.90
2018-07-12T19:43:44.796Z,43.20
2018-07-12T19:46:14.876Z,43.60
2018-07-12T19:48:44.349Z,43.90
2018-07-12T19:53:42.782Z,44.50
2018-07-12T19:56:12.276Z,44.70
2018-07-12T19:58:41.790Z,45.00
2018-07-12T20:01:11.306Z,45.40
2018-07-12T20:03:40.781Z,45.60
2018-07-12T20:06:10.164Z,45.90
2018-07-12T20:08:39.648Z,46.20
2018-07-12T20:11:09.031Z,46.50
2018-07-12T20:13:39.091Z,46.70
2018-07-12T20:16:08.534Z,46.90
2018-07-12T20:18:38.005Z,47.20
2018-07-12T20:23:38.187Z,47.60
2018-07-12T20:26:08.142Z,47.90
2018-07-12T20:28:37.569Z,48.10
2018-07-12T20:31:07.735Z,48.30
2018-07-12T20:33:37.753Z,48.50
2018-07-12T20:36:07.324Z,48.60
2018-07-12T20:38:36.893Z,48.80
2018-07-12T20:41:06.389Z,48.90
2018-07-12T20:43:35.860Z,49.10
2018-07-12T20:46:05.753Z,49.20
2018-07-12T20:48:35.211Z,49.30
2018-07-12T20:51:04.583Z,49.40
2018-07-12T20:53:34.029Z,49.50
2018-07-12T20:56:03.394Z,49.60
2018-07-12T20:58:32.859Z,49.80
2018-07-12T21:01:02.262Z,50.00
2018-07-12T21:03:32.305Z,50.00
2018-07-12T21:06:01.738Z,50.20
2018-07-12T21:08:31.152Z,50.50
2018-07-12T21:11:01.206Z,50.60
2018-07-12T21:13:31.568Z,50.90
2018-07-12T21:16:00.966Z,50.90
2018-07-12T21:18:30.341Z,51.10
2018-07-12T21:20:59.921Z,51.30
2018-07-12T21:23:29.360Z,51.50
2018-07-12T21:25:59.336Z,51.60
2018-07-12T21:28:28.874Z,51.80
2018-07-12T21:30:58.369Z,52.00
2018-07-12T21:33:27.847Z,52.20
2018-07-12T21:35:57.395Z,52.30
2018-07-12T21:38:26.883Z,52.40
2018-07-12T21:43:25.300Z,52.60
2018-07-12T21:45:54.744Z,52.70
2018-07-12T21:48:24.118Z,52.90
2018-07-12T21:50:53.534Z,53.00
2018-07-12T21:53:22.945Z,53.20
2018-07-12T21:55:52.403Z,53.20
2018-07-12T21:58:21.796Z,53.30
2018-07-12T22:00:51.205Z,53.40
2018-07-12T22:03:20.763Z,53.50
2018-07-12T22:05:50.151Z,53.60
2018-07-12T22:08:22.673Z,53.70
2018-07-12T22:10:53.393Z,53.80
2018-07-12T22:13:23.295Z,53.80
2018-07-12T22:15:53.363Z,54.00
2018-07-12T22:18:22.748Z,54.20
2018-07-12T22:20:52.159Z,54.20
2018-07-12T22:25:50.656Z,54.40
2018-07-12T22:28:20.062Z,54.60
2018-07-12T22:30:49.929Z,54.70
2018-07-12T22:33:19.264Z,54.70
2018-07-12T22:35:48.781Z,54.80
2018-07-12T22:43:16.943Z,55.00
2018-07-12T22:45:46.378Z,55.10
2018-07-12T22:48:16.283Z,55.20
2018-07-12T22:50:45.563Z,55.30
2018-07-12T22:53:14.935Z,55.40
2018-07-12T22:55:44.247Z,55.40
2018-07-12T22:58:14.126Z,55.50
2018-07-12T23:00:43.504Z,55.50
2018-07-12T23:03:12.875Z,55.60
2018-07-12T23:05:42.242Z,55.60
2018-07-12T23:08:11.645Z,55.70
2018-07-12T23:10:41.018Z,55.70
2018-07-12T23:13:10.445Z,55.90
2018-07-12T23:15:39.800Z,56.10
2018-07-12T23:18:09.182Z,56.20
2018-07-12T23:20:39.164Z,56.40
2018-07-12T23:23:08.518Z,56.60
2018-07-12T23:25:37.968Z,56.70
2018-07-12T23:28:07.419Z,56.80
2018-07-12T23:30:36.883Z,56.90
2018-07-12T23:33:07.094Z,57.00
2018-07-12T23:35:36.452Z,57.10
2018-07-12T23:38:05.888Z,57.00
2018-07-12T23:40:35.447Z,57.00
2018-07-12T23:43:04.990Z,57.00
2018-07-12T23:45:34.357Z,57.00
2018-07-12T23:48:03.760Z,57.00
2018-07-12T23:50:33.905Z,57.10
2018-07-12T23:53:03.251Z,57.10
2018-07-12T23:55:32.693Z,57.10
2018-07-12T23:58:02.227Z,57.10
